MKK weather

Molokai Airport
Kaunakakai, Hawaii, United States

Public forecast

Using degrees Fahrenheit for public forecast. Weather courtesy of forecast.io.

Current aviation weather report (METAR) for Molokai Airport

Retrieved 2020/01/23 12:54 UTC (50 minutes ago):

PHMK 231254Z AUTO 05003KT 10SM CLR 16/13 A3003 RMK AO2 SLP173 T01610133 TSNO

Aviation forecast (TAF) for Molokai Airport

Retrieved 2020/01/23 12:45 UTC (59 minutes ago):

TAF PHMK 231141Z 2312/2412 VRB03KT P6SM FEW040 FM232000 08008KT P6SM FEW030 SCT045 FM240500 VRB05KT P6SM FEW040